Time;durP1;ratioP1;P1;durP2;ratioP2;P2;SDS_P1;SDS_P2;PMS_P1;PMS_P2;Temp;Humidity;BMP_temperature;BMP_pressure;BME280_temperature;BME280_humidity;BME280_pressure;Samples;Min_cycle;Max_cycle;Signal;HPM_P1;HPM_P2
2022/10/08 00:01:12;;;;;;;10.48;5.60;;;;;;;;;;5074807;28;20557;-75
2022/10/08 00:03:43;;;;;;;8.88;5.68;;;;;;;;;;5075094;28;20060;-75
2022/10/08 00:06:12;;;;;;;7.40;6.15;;;;;;;;;;5076494;28;20128;-75
2022/10/08 00:08:40;;;;;;;7.88;5.00;;;;;;;;;;5076655;28;20068;-74
2022/10/08 00:11:07;;;;;;;6.15;4.90;;;;;;;;;;5076926;28;20048;-75
2022/10/08 00:13:40;;;;;;;6.43;5.15;;;;;;;;;;5077154;28;20044;-75
2022/10/08 00:16:14;;;;;;;5.78;4.03;;;;;;;;;;5076658;28;20044;-74
2022/10/08 00:18:40;;;;;;;8.70;4.93;;;;;;;;;;5077410;28;20050;-75
2022/10/08 00:21:10;;;;;;;5.97;4.88;;;;;;;;;;5076805;28;20040;-75
2022/10/08 00:23:36;;;;;;;7.80;5.07;;;;;;;;;;5076906;28;20067;-75
2022/10/08 00:26:06;;;;;;;10.73;5.40;;;;;;;;;;5076730;28;20060;-75
2022/10/08 00:28:33;;;;;;;11.90;6.38;;;;;;;;;;5076056;28;20040;-75
2022/10/08 00:31:05;;;;;;;8.43;5.75;;;;;;;;;;5076603;28;20083;-75
2022/10/08 00:33:31;;;;;;;8.85;5.60;;;;;;;;;;5076251;28;20046;-75
2022/10/08 00:36:00;;;;;;;10.65;5.88;;;;;;;;;;5075252;28;20483;-75
2022/10/08 00:38:26;;;;;;;9.02;5.53;;;;;;;;;;5076462;28;20157;-75
2022/10/08 00:40:53;;;;;;;6.85;5.47;;;;;;;;;;5076593;28;20120;-75
2022/10/08 00:43:36;;;;;;;6.60;5.40;;;;;;;;;;5076451;28;20055;-75
2022/10/08 00:46:02;;;;;;;8.00;5.30;;;;;;;;;;5076417;28;20097;-75
2022/10/08 00:48:28;;;;;;;6.55;5.80;;;;;;;;;;5076420;28;20098;-75
2022/10/08 00:50:55;;;;;;;6.43;5.72;;;;;;;;;;5075931;28;20036;-75
2022/10/08 00:53:21;;;;;;;8.90;5.82;;;;;;;;;;5076136;28;20049;-75
2022/10/08 00:55:47;;;;;;;7.55;5.70;;;;;;;;;;5075903;28;20040;-75
2022/10/08 00:58:19;;;;;;;10.48;5.60;;;;;;;;;;5075653;28;20044;-75
2022/10/08 01:00:46;;;;;;;10.88;5.80;;;;;;;;;;5075719;28;20390;-75
2022/10/08 01:03:12;;;;;;;19.90;7.07;;;;;;;;;;5076219;28;20425;-75
2022/10/08 01:05:38;;;;;;;10.35;6.20;;;;;;;;;;5075928;28;20120;-75
2022/10/08 01:08:23;;;;;;;7.07;6.38;;;;;;;;;;5075759;28;20563;-75
2022/10/08 01:10:58;;;;;;;17.40;6.70;;;;;;;;;;5076101;28;20076;-75
2022/10/08 01:13:40;;;;;;;6.88;5.65;;;;;;;;;;5075885;28;20076;-75
2022/10/08 01:16:24;;;;;;;11.52;6.47;;;;;;;;;;5075087;28;20111;-75
2022/10/08 01:18:51;;;;;;;7.45;6.25;;;;;;;;;;5075238;28;20032;-75
2022/10/08 01:21:26;;;;;;;7.88;6.75;;;;;;;;;;5076117;28;20041;-75
2022/10/08 01:24:11;;;;;;;7.72;6.03;;;;;;;;;;5075778;28;20040;-75
2022/10/08 01:26:37;;;;;;;10.10;6.43;;;;;;;;;;5076028;28;20036;-75
2022/10/08 01:29:22;;;;;;;11.80;7.03;;;;;;;;;;5075368;28;20048;-75
2022/10/08 01:31:57;;;;;;;7.55;6.30;;;;;;;;;;5075960;28;20167;-75
2022/10/08 01:34:23;;;;;;;7.10;6.35;;;;;;;;;;5075266;28;20051;-75
2022/10/08 01:36:50;;;;;;;10.63;7.00;;;;;;;;;;5075319;28;20043;-75
2022/10/08 01:39:19;;;;;;;10.55;6.93;;;;;;;;;;5075244;28;20051;-75
2022/10/08 01:41:55;;;;;;;9.38;7.15;;;;;;;;;;5074940;28;20059;-75
2022/10/08 01:44:23;;;;;;;12.43;7.47;;;;;;;;;;5074411;28;20041;-75
2022/10/08 01:46:50;;;;;;;13.02;7.63;;;;;;;;;;5075155;28;20491;-75
2022/10/08 01:49:19;;;;;;;12.23;7.60;;;;;;;;;;5074947;28;20075;-75
2022/10/08 01:52:09;;;;;;;9.75;7.85;;;;;;;;;;5075019;28;20044;-75
2022/10/08 01:54:36;;;;;;;10.02;7.10;;;;;;;;;;5069204;28;20125;-75
2022/10/08 01:57:04;;;;;;;9.48;6.68;;;;;;;;;;5075029;28;20095;-75
2022/10/08 01:59:43;;;;;;;13.18;6.90;;;;;;;;;;5074678;28;20041;-75
2022/10/08 02:02:19;;;;;;;9.85;6.30;;;;;;;;;;5075530;28;20041;-75
2022/10/08 02:04:46;;;;;;;9.75;6.82;;;;;;;;;;5074637;28;20044;-75
2022/10/08 02:07:17;;;;;;;7.65;6.95;;;;;;;;;;5074833;28;20043;-75
2022/10/08 02:09:44;;;;;;;10.07;6.60;;;;;;;;;;5074311;28;20040;-75
2022/10/08 02:12:11;;;;;;;9.45;6.55;;;;;;;;;;5074734;28;20040;-75
2022/10/08 02:14:38;;;;;;;10.55;6.80;;;;;;;;;;5074520;28;20045;-75
2022/10/08 02:17:25;;;;;;;6.40;5.80;;;;;;;;;;5074677;28;20036;-75
2022/10/08 02:20:00;;;;;;;9.05;5.85;;;;;;;;;;5067327;28;20079;-75
2022/10/08 02:22:32;;;;;;;7.45;6.00;;;;;;;;;;5074955;28;20115;-75
2022/10/08 02:25:04;;;;;;;8.98;6.43;;;;;;;;;;5074300;28;20052;-75
2022/10/08 02:27:36;;;;;;;11.88;5.82;;;;;;;;;;5074900;28;20041;-75
2022/10/08 02:30:10;;;;;;;6.28;5.68;;;;;;;;;;5073757;28;20050;-75
2022/10/08 02:32:40;;;;;;;7.22;5.97;;;;;;;;;;5074815;28;20521;-75
2022/10/08 02:35:21;;;;;;;9.18;6.30;;;;;;;;;;5074170;28;20499;-75
2022/10/08 02:37:52;;;;;;;10.38;6.25;;;;;;;;;;5074156;28;20032;-75
2022/10/08 02:40:18;;;;;;;9.65;7.03;;;;;;;;;;5074768;28;20048;-75
2022/10/08 02:42:48;;;;;;;7.05;6.35;;;;;;;;;;5074847;28;20048;-75
2022/10/08 02:45:20;;;;;;;9.17;6.60;;;;;;;;;;5074431;28;20491;-75
2022/10/08 02:47:47;;;;;;;10.38;6.05;;;;;;;;;;5074034;28;20114;-75
2022/10/08 02:50:18;;;;;;;11.98;5.72;;;;;;;;;;5073744;28;20406;-75
2022/10/08 02:52:45;;;;;;;12.63;6.40;;;;;;;;;;5074921;28;20147;-75
2022/10/08 02:55:18;;;;;;;7.90;5.95;;;;;;;;;;5073759;28;20465;-75
2022/10/08 02:57:46;;;;;;;6.88;6.07;;;;;;;;;;5073957;28;20120;-75
2022/10/08 03:00:12;;;;;;;8.98;6.20;;;;;;;;;;5074240;28;20097;-75
2022/10/08 03:02:38;;;;;;;7.45;6.38;;;;;;;;;;5074384;28;20041;-75
2022/10/08 03:05:07;;;;;;;9.35;6.13;;;;;;;;;;5073936;28;20494;-75
2022/10/08 03:07:33;;;;;;;8.68;5.95;;;;;;;;;;5074184;28;20041;-75
2022/10/08 03:10:04;;;;;;;7.75;6.80;;;;;;;;;;5073684;28;20514;-75
2022/10/08 03:12:30;;;;;;;8.45;6.00;;;;;;;;;;5073848;28;20075;-75
2022/10/08 03:14:57;;;;;;;10.73;6.70;;;;;;;;;;5074001;28;20040;-75
2022/10/08 03:17:29;;;;;;;9.45;5.85;;;;;;;;;;5073795;28;20356;-75
2022/10/08 03:19:56;;;;;;;8.13;6.15;;;;;;;;;;5073771;28;20049;-75
2022/10/08 03:22:22;;;;;;;9.55;5.93;;;;;;;;;;5074375;28;20145;-75
2022/10/08 03:24:48;;;;;;;10.30;5.85;;;;;;;;;;5073692;28;20044;-75
2022/10/08 03:27:14;;;;;;;7.55;6.80;;;;;;;;;;5074251;28;20053;-75
2022/10/08 03:29:41;;;;;;;11.40;6.18;;;;;;;;;;5073740;28;20048;-75
2022/10/08 03:32:07;;;;;;;9.15;6.40;;;;;;;;;;5074467;28;20086;-75
2022/10/08 03:34:33;;;;;;;10.52;6.53;;;;;;;;;;5074031;28;20041;-75
2022/10/08 03:36:59;;;;;;;8.52;6.85;;;;;;;;;;5073614;28;20514;-75
2022/10/08 03:39:25;;;;;;;9.82;6.78;;;;;;;;;;5073707;28;20041;-75
2022/10/08 03:41:52;;;;;;;10.18;7.22;;;;;;;;;;5077268;28;20033;-75
2022/10/08 03:44:18;;;;;;;8.60;7.35;;;;;;;;;;5077650;28;20040;-75
2022/10/08 03:46:44;;;;;;;10.32;7.50;;;;;;;;;;5077670;28;20056;-75
2022/10/08 03:49:10;;;;;;;9.25;6.32;;;;;;;;;;5077303;28;20044;-75
2022/10/08 03:51:36;;;;;;;10.30;6.70;;;;;;;;;;5077600;28;20387;-75
2022/10/08 03:54:02;;;;;;;6.95;5.97;;;;;;;;;;5077252;28;20403;-75
2022/10/08 03:56:28;;;;;;;11.07;6.70;;;;;;;;;;5076892;28;20502;-75
2022/10/08 03:58:55;;;;;;;9.10;6.78;;;;;;;;;;5077257;28;20048;-75
2022/10/08 04:01:22;;;;;;;12.20;7.53;;;;;;;;;;5077222;28;20098;-75
2022/10/08 04:03:48;;;;;;;8.23;7.38;;;;;;;;;;5077809;28;20037;-75
2022/10/08 04:06:15;;;;;;;9.13;6.20;;;;;;;;;;5077407;28;20090;-75
2022/10/08 04:08:41;;;;;;;6.85;6.15;;;;;;;;;;5077462;28;20044;-75
2022/10/08 04:11:08;;;;;;;10.43;6.57;;;;;;;;;;5077584;28;20076;-75
2022/10/08 04:13:35;;;;;;;10.45;6.53;;;;;;;;;;5077057;28;20151;-75
2022/10/08 04:16:02;;;;;;;10.93;6.93;;;;;;;;;;5076911;28;20377;-75
2022/10/08 04:18:29;;;;;;;11.05;6.88;;;;;;;;;;5077143;28;20098;-75
2022/10/08 04:20:59;;;;;;;9.48;6.85;;;;;;;;;;5077084;28;20028;-75
2022/10/08 04:23:26;;;;;;;11.45;7.72;;;;;;;;;;5077176;28;20051;-75
2022/10/08 04:25:52;;;;;;;8.27;7.47;;;;;;;;;;5077304;28;20474;-75
2022/10/08 04:28:18;;;;;;;7.68;6.78;;;;;;;;;;5076460;28;20100;-75
2022/10/08 04:30:58;;;;;;;8.73;6.95;;;;;;;;;;5076936;28;20074;-74
2022/10/08 04:33:24;;;;;;;10.35;6.68;;;;;;;;;;5077233;28;20543;-75
2022/10/08 04:35:50;;;;;;;10.57;7.38;;;;;;;;;;5077644;28;20059;-75
2022/10/08 04:38:17;;;;;;;7.60;6.63;;;;;;;;;;5076948;28;20052;-75
2022/10/08 04:40:43;;;;;;;10.13;6.40;;;;;;;;;;5077010;28;20040;-75
2022/10/08 04:43:09;;;;;;;9.52;6.70;;;;;;;;;;5076675;28;20046;-75
2022/10/08 04:45:40;;;;;;;12.35;7.82;;;;;;;;;;5076409;28;20512;-75
2022/10/08 04:48:07;;;;;;;8.88;7.43;;;;;;;;;;5076285;28;20083;-75
2022/10/08 04:50:33;;;;;;;11.30;8.07;;;;;;;;;;5076795;28;20132;-75
2022/10/08 04:52:59;;;;;;;7.45;6.75;;;;;;;;;;5076117;28;20044;-75
2022/10/08 04:55:25;;;;;;;8.63;7.07;;;;;;;;;;5076549;28;20057;-75
2022/10/08 04:57:51;;;;;;;11.10;7.38;;;;;;;;;;5076732;28;20043;-75
2022/10/08 05:00:17;;;;;;;11.02;8.38;;;;;;;;;;5076065;28;20068;-75
2022/10/08 05:02:43;;;;;;;9.20;7.70;;;;;;;;;;5076658;28;20071;-75
2022/10/08 05:05:09;;;;;;;10.00;7.60;;;;;;;;;;5076223;28;20044;-75
2022/10/08 05:07:36;;;;;;;10.25;7.20;;;;;;;;;;5076213;28;20036;-75
2022/10/08 05:10:02;;;;;;;8.45;7.55;;;;;;;;;;5076098;28;20040;-75
2022/10/08 05:12:28;;;;;;;9.35;8.10;;;;;;;;;;5076712;28;20067;-75
2022/10/08 05:14:54;;;;;;;8.48;7.15;;;;;;;;;;5075889;28;20052;-75
2022/10/08 05:17:20;;;;;;;10.23;8.55;;;;;;;;;;5076257;28;20048;-75
2022/10/08 05:19:46;;;;;;;9.32;7.90;;;;;;;;;;5075650;28;20075;-75
2022/10/08 05:22:12;;;;;;;9.02;8.13;;;;;;;;;;5076094;28;20479;-75
2022/10/08 05:24:38;;;;;;;10.45;8.10;;;;;;;;;;5075874;28;20198;-75
2022/10/08 05:27:05;;;;;;;10.10;7.07;;;;;;;;;;5075790;28;20040;-75
2022/10/08 05:29:31;;;;;;;8.68;6.75;;;;;;;;;;5075543;28;20040;-75
2022/10/08 05:31:57;;;;;;;8.60;6.40;;;;;;;;;;5076011;28;20090;-75
2022/10/08 05:34:23;;;;;;;10.00;6.40;;;;;;;;;;5074558;28;20360;-75
2022/10/08 05:36:49;;;;;;;9.13;6.03;;;;;;;;;;5075657;28;20024;-75
2022/10/08 05:39:15;;;;;;;9.30;7.03;;;;;;;;;;5073704;28;20098;-75
2022/10/08 05:41:42;;;;;;;10.02;7.40;;;;;;;;;;5074401;28;20094;-75
2022/10/08 05:44:09;;;;;;;8.35;6.63;;;;;;;;;;5075686;28;20048;-74
2022/10/08 05:46:36;;;;;;;7.63;6.82;;;;;;;;;;5074370;28;20044;-75
2022/10/08 05:49:04;;;;;;;8.85;8.00;;;;;;;;;;5075080;28;20429;-75
2022/10/08 05:51:31;;;;;;;7.93;7.13;;;;;;;;;;5075110;28;20044;-74
2022/10/08 05:53:58;;;;;;;9.25;7.22;;;;;;;;;;5075255;28;20040;-75
2022/10/08 05:56:25;;;;;;;8.23;7.10;;;;;;;;;;5074644;28;20048;-74
2022/10/08 05:58:52;;;;;;;11.60;6.70;;;;;;;;;;5073632;28;20047;-74
2022/10/08 06:01:21;;;;;;;7.85;6.43;;;;;;;;;;5074174;28;20047;-74
2022/10/08 06:04:13;;;;;;;10.15;6.43;;;;;;;;;;5074567;28;20040;-74
2022/10/08 06:06:41;;;;;;;7.57;6.35;;;;;;;;;;5072270;28;20487;-74
2022/10/08 06:09:07;;;;;;;8.10;7.20;;;;;;;;;;5068181;28;20040;-74
2022/10/08 06:11:34;;;;;;;7.10;6.38;;;;;;;;;;5074444;28;20079;-74
2022/10/08 06:14:00;;;;;;;6.65;5.97;;;;;;;;;;5074869;28;20071;-74
2022/10/08 06:16:28;;;;;;;7.68;6.65;;;;;;;;;;5075241;28;20047;-74
2022/10/08 06:18:54;;;;;;;11.38;7.03;;;;;;;;;;5073425;28;20036;-74
2022/10/08 06:21:21;;;;;;;9.98;6.70;;;;;;;;;;5074503;28;20040;-74
2022/10/08 06:23:48;;;;;;;11.48;6.60;;;;;;;;;;5074568;28;20597;-75
2022/10/08 06:26:16;;;;;;;8.75;5.93;;;;;;;;;;5073454;28;20040;-75
2022/10/08 06:28:43;;;;;;;7.40;5.90;;;;;;;;;;5073033;28;20043;-80
2022/10/08 06:31:09;;;;;;;7.18;6.13;;;;;;;;;;5073276;28;20037;-73
2022/10/08 06:33:35;;;;;;;8.15;6.28;;;;;;;;;;5074658;28;20533;-76
2022/10/08 06:36:24;;;;;;;8.45;6.03;;;;;;;;;;5074648;28;20127;-76
2022/10/08 06:39:00;;;;;;;10.05;5.95;;;;;;;;;;5074315;28;20071;-76
2022/10/08 06:41:29;;;;;;;7.03;5.55;;;;;;;;;;5074626;28;20041;-76
2022/10/08 06:43:55;;;;;;;6.90;5.50;;;;;;;;;;5074259;28;20075;-76
2022/10/08 06:46:21;;;;;;;10.15;5.57;;;;;;;;;;5074372;28;20043;-76
2022/10/08 06:48:47;;;;;;;7.30;4.80;;;;;;;;;;5074486;28;20040;-75
2022/10/08 06:51:15;;;;;;;6.68;4.60;;;;;;;;;;5074339;28;20044;-76
2022/10/08 06:53:42;;;;;;;4.82;4.43;;;;;;;;;;5074449;28;20043;-76
2022/10/08 06:56:16;;;;;;;7.60;4.47;;;;;;;;;;5074843;28;20048;-76
2022/10/08 06:58:43;;;;;;;5.00;4.50;;;;;;;;;;5074098;28;20040;-75
2022/10/08 07:01:11;;;;;;;6.13;4.45;;;;;;;;;;5075129;28;20068;-76
2022/10/08 07:03:38;;;;;;;9.68;4.88;;;;;;;;;;5075079;28;20110;-75
2022/10/08 07:06:08;;;;;;;4.60;4.18;;;;;;;;;;5074185;28;20489;-76
2022/10/08 07:08:35;;;;;;;7.80;4.25;;;;;;;;;;5074604;28;20102;-76
2022/10/08 07:11:08;;;;;;;7.63;4.78;;;;;;;;;;5074529;28;20040;-77
2022/10/08 07:13:34;;;;;;;8.68;4.43;;;;;;;;;;5073039;28;20465;-75
2022/10/08 07:16:01;;;;;;;25.05;22.70;;;;;;;;;;5076666;28;20125;-75
2022/10/08 07:18:27;;;;;;;11.77;9.27;;;;;;;;;;5078233;28;20048;-75
2022/10/08 07:20:55;;;;;;;4.80;4.28;;;;;;;;;;5078171;28;20040;-76
2022/10/08 07:23:21;;;;;;;4.20;3.60;;;;;;;;;;5078433;28;20075;-76
2022/10/08 07:25:56;;;;;;;4.18;3.78;;;;;;;;;;5078733;28;20036;-76
2022/10/08 07:28:22;;;;;;;6.38;4.88;;;;;;;;;;5077638;28;20118;-76
2022/10/08 07:30:48;;;;;;;8.68;6.22;;;;;;;;;;5078066;28;20041;-76
2022/10/08 07:33:14;;;;;;;5.65;3.72;;;;;;;;;;5077965;28;20054;-76
2022/10/08 07:35:40;;;;;;;8.43;4.57;;;;;;;;;;5077978;28;20048;-76
2022/10/08 07:38:07;;;;;;;4.22;3.83;;;;;;;;;;5077621;28;20529;-75
2022/10/08 07:40:34;;;;;;;7.05;4.32;;;;;;;;;;5077596;28;20036;-75
2022/10/08 07:43:01;;;;;;;6.53;4.22;;;;;;;;;;5077865;28;20040;-74
2022/10/08 07:45:27;;;;;;;7.10;4.60;;;;;;;;;;5077603;28;20067;-74
2022/10/08 07:47:53;;;;;;;9.25;4.53;;;;;;;;;;5077248;28;20128;-75
2022/10/08 07:50:19;;;;;;;5.82;5.03;;;;;;;;;;5077429;28;20044;-75
2022/10/08 07:52:45;;;;;;;6.50;5.82;;;;;;;;;;5077244;28;20573;-77
2022/10/08 07:55:12;;;;;;;6.38;4.22;;;;;;;;;;5075926;28;20059;-75
2022/10/08 07:57:38;;;;;;;5.07;3.83;;;;;;;;;;5076893;28;20045;-75
2022/10/08 08:00:04;;;;;;;4.60;3.78;;;;;;;;;;5077263;28;20046;-75
2022/10/08 08:02:30;;;;;;;3.92;3.15;;;;;;;;;;5077689;28;20055;-75
2022/10/08 08:04:56;;;;;;;6.90;3.60;;;;;;;;;;5077476;28;20063;-75
2022/10/08 08:07:22;;;;;;;4.60;3.42;;;;;;;;;;5077103;28;20048;-75
2022/10/08 08:09:48;;;;;;;5.05;2.92;;;;;;;;;;5076961;28;20036;-75
2022/10/08 08:12:15;;;;;;;6.13;3.42;;;;;;;;;;5077513;28;20380;-75
2022/10/08 08:14:41;;;;;;;10.80;4.20;;;;;;;;;;5076842;28;20047;-75
2022/10/08 08:17:07;;;;;;;6.00;4.22;;;;;;;;;;5076960;28;20071;-75
2022/10/08 08:19:33;;;;;;;4.00;3.70;;;;;;;;;;5077195;28;20045;-75
2022/10/08 08:21:59;;;;;;;8.15;6.07;;;;;;;;;;5076863;28;20044;-75
2022/10/08 08:24:25;;;;;;;5.75;3.55;;;;;;;;;;5076782;28;20047;-76
2022/10/08 08:26:51;;;;;;;4.60;3.55;;;;;;;;;;5076663;28;20379;-74
2022/10/08 08:29:18;;;;;;;5.22;3.50;;;;;;;;;;5076761;28;20052;-74
2022/10/08 08:31:45;;;;;;;6.05;3.78;;;;;;;;;;5076763;28;20049;-73
2022/10/08 08:34:12;;;;;;;5.43;4.80;;;;;;;;;;5077108;28;20040;-74
2022/10/08 08:36:40;;;;;;;4.40;3.33;;;;;;;;;;5077440;28;20044;-73
2022/10/08 08:39:07;;;;;;;5.32;3.67;;;;;;;;;;5076497;28;20093;-73
2022/10/08 08:41:33;;;;;;;6.35;3.67;;;;;;;;;;5076678;28;20036;-73
2022/10/08 08:44:00;;;;;;;6.60;4.28;;;;;;;;;;5076738;28;20162;-73
2022/10/08 08:46:29;;;;;;;6.45;3.60;;;;;;;;;;5076927;28;20040;-74
2022/10/08 08:48:56;;;;;;;10.10;7.32;;;;;;;;;;5076518;28;20066;-73
2022/10/08 08:51:22;;;;;;;5.03;3.13;;;;;;;;;;5084267;28;20044;-73
2022/10/08 08:53:49;;;;;;;3.67;3.13;;;;;;;;;;5097101;28;20069;-74
2022/10/08 08:56:16;;;;;;;3.83;3.40;;;;;;;;;;5096805;28;20054;-74
2022/10/08 08:58:59;;;;;;;7.93;4.10;;;;;;;;;;5096133;28;20575;-74
2022/10/08 09:01:30;;;;;;;5.45;4.53;;;;;;;;;;5096895;28;20479;-74
2022/10/08 09:04:03;;;;;;;5.95;3.75;;;;;;;;;;5096527;28;20525;-74
2022/10/08 09:06:30;;;;;;;6.90;3.95;;;;;;;;;;5096296;28;20044;-74
2022/10/08 09:08:59;;;;;;;6.13;4.03;;;;;;;;;;5095850;28;20040;-75
2022/10/08 09:11:25;;;;;;;5.38;3.50;;;;;;;;;;5096653;28;20043;-74
2022/10/08 09:13:56;;;;;;;4.40;3.67;;;;;;;;;;5095742;28;20040;-74
2022/10/08 09:16:22;;;;;;;5.05;3.22;;;;;;;;;;5095880;28;20036;-73
2022/10/08 09:18:50;;;;;;;6.07;3.50;;;;;;;;;;5095838;28;20524;-74
2022/10/08 09:21:17;;;;;;;5.25;3.17;;;;;;;;;;5095485;28;20127;-74
2022/10/08 09:23:43;;;;;;;7.78;5.88;;;;;;;;;;5096098;28;20047;-75
2022/10/08 09:26:15;;;;;;;7.63;4.60;;;;;;;;;;5095511;28;20126;-75
2022/10/08 09:28:51;;;;;;;9.27;6.25;;;;;;;;;;5095460;28;20520;-74
2022/10/08 09:31:18;;;;;;;6.90;4.43;;;;;;;;;;5095598;28;20066;-74
2022/10/08 09:33:45;;;;;;;8.43;4.60;;;;;;;;;;5095598;28;20044;-74
2022/10/08 09:36:11;;;;;;;5.53;3.13;;;;;;;;;;5095372;28;20042;-74
2022/10/08 09:38:38;;;;;;;4.80;3.08;;;;;;;;;;5095149;28;20043;-75
2022/10/08 09:41:06;;;;;;;46.63;41.00;;;;;;;;;;5095577;28;20067;-76
2022/10/08 09:43:33;;;;;;;5.38;4.18;;;;;;;;;;5095520;28;20530;-78
2022/10/08 09:46:03;;;;;;;6.15;3.08;;;;;;;;;;5095161;28;20044;-76
2022/10/08 09:48:30;;;;;;;11.68;8.82;;;;;;;;;;5095300;28;20155;-76
2022/10/08 09:51:06;;;;;;;6.80;4.07;;;;;;;;;;5095447;28;20036;-76
2022/10/08 09:53:48;;;;;;;8.07;5.40;;;;;;;;;;5095180;28;20070;-76
2022/10/08 09:56:14;;;;;;;6.10;3.67;;;;;;;;;;5095794;28;20059;-73
2022/10/08 09:59:06;;;;;;;4.30;3.60;;;;;;;;;;5095333;28;20047;-74
2022/10/08 10:01:33;;;;;;;7.10;2.88;;;;;;;;;;5090548;28;20044;-75
2022/10/08 10:04:02;;;;;;;5.43;2.70;;;;;;;;;;5075463;28;20040;-77
2022/10/08 10:06:36;;;;;;;4.18;2.67;;;;;;;;;;5074587;28;20424;-75
2022/10/08 10:09:07;;;;;;;4.43;3.03;;;;;;;;;;5075049;28;20049;-77
2022/10/08 10:11:33;;;;;;;;;;;;;;;;;;5076182;28;20049;-79
2022/10/08 10:14:03;;;;;;;6.80;3.70;;;;;;;;;;5074616;28;20252;-78
2022/10/08 10:16:34;;;;;;;4.30;3.45;;;;;;;;;;5073557;28;20055;-77
2022/10/08 10:19:03;;;;;;;4.05;3.35;;;;;;;;;;5074573;28;20119;-76
2022/10/08 10:21:46;;;;;;;6.18;3.35;;;;;;;;;;5072181;28;20128;-75
2022/10/08 10:24:12;;;;;;;6.28;3.50;;;;;;;;;;5074779;28;20045;-76
2022/10/08 10:26:40;;;;;;;5.70;3.30;;;;;;;;;;5075375;28;20045;-76
2022/10/08 10:29:09;;;;;;;5.70;3.58;;;;;;;;;;5074360;28;20044;-76
2022/10/08 10:31:48;;;;;;;5.03;3.63;;;;;;;;;;5073558;28;20066;-74
2022/10/08 10:34:24;;;;;;;5.78;3.70;;;;;;;;;;5074737;28;20139;-74
2022/10/08 10:36:55;;;;;;;5.13;3.45;;;;;;;;;;5074342;28;20033;-74
2022/10/08 10:39:27;;;;;;;5.82;3.58;;;;;;;;;;5074962;28;20044;-76
2022/10/08 10:42:12;;;;;;;6.82;3.70;;;;;;;;;;5074400;28;20487;-76
2022/10/08 10:44:41;;;;;;;4.78;3.35;;;;;;;;;;5074416;28;20120;-75
2022/10/08 10:47:08;;;;;;;6.40;3.72;;;;;;;;;;5073916;28;20105;-75
2022/10/08 10:49:40;;;;;;;5.05;3.45;;;;;;;;;;5074170;28;20074;-75
2022/10/08 10:52:09;;;;;;;5.97;3.42;;;;;;;;;;5076803;28;20101;-76
2022/10/08 10:54:55;;;;;;;5.50;3.35;;;;;;;;;;5076688;28;20127;-74
2022/10/08 10:57:27;;;;;;;5.47;3.70;;;;;;;;;;5076197;28;20059;-74
2022/10/08 11:00:09;;;;;;;6.32;3.78;;;;;;;;;;5075209;28;20048;-73
2022/10/08 11:02:42;;;;;;;4.70;3.70;;;;;;;;;;5076060;28;20055;-73
2022/10/08 11:05:17;;;;;;;6.10;3.47;;;;;;;;;;5078298;28;20111;-74
2022/10/08 11:07:46;;;;;;;4.22;3.55;;;;;;;;;;5078859;28;20067;-76
2022/10/08 11:10:18;;;;;;;7.28;3.97;;;;;;;;;;5076575;28;20390;-76
2022/10/08 11:12:48;;;;;;;6.32;4.50;;;;;;;;;;5077941;28;20115;-76
2022/10/08 11:15:30;;;;;;;5.85;4.78;;;;;;;;;;5068732;28;20048;-73
2022/10/08 11:17:56;;;;;;;7.22;5.10;;;;;;;;;;5057107;28;20041;-76
2022/10/08 11:20:48;;;;;;;10.20;4.90;;;;;;;;;;5057004;28;20068;-74
2022/10/08 11:23:20;;;;;;;9.02;5.97;;;;;;;;;;5033539;28;20037;-75
2022/10/08 11:25:53;;;;;;;9.15;5.40;;;;;;;;;;5057595;28;20067;-75
2022/10/08 11:28:19;;;;;;;8.63;5.30;;;;;;;;;;5056951;28;20068;-75
2022/10/08 11:30:53;;;;;;;7.80;5.55;;;;;;;;;;5057599;28;20072;-74
2022/10/08 11:33:20;;;;;;;9.30;6.15;;;;;;;;;;5062522;28;20048;-76
2022/10/08 11:35:57;;;;;;;8.45;5.40;;;;;;;;;;5077590;28;20029;-74
2022/10/08 11:38:29;;;;;;;9.55;5.70;;;;;;;;;;5077146;28;20048;-77
2022/10/08 11:40:58;;;;;;;8.27;6.00;;;;;;;;;;5076598;28;20064;-79
2022/10/08 11:43:30;;;;;;;11.25;5.90;;;;;;;;;;5076903;28;20047;-77
2022/10/08 11:46:15;;;;;;;8.38;5.07;;;;;;;;;;5076896;28;20487;-77
2022/10/08 11:48:41;;;;;;;11.55;6.72;;;;;;;;;;5075749;28;20044;-75
2022/10/08 11:51:19;;;;;;;10.80;5.95;;;;;;;;;;5076607;28;20117;-75
2022/10/08 11:54:04;;;;;;;8.70;5.25;;;;;;;;;;5076475;28;20127;-75
2022/10/08 11:56:31;;;;;;;12.43;5.72;;;;;;;;;;5074615;28;20064;-75
2022/10/08 11:59:00;;;;;;;10.48;6.35;;;;;;;;;;5075304;28;20051;-76
2022/10/08 12:01:26;;;;;;;11.10;5.72;;;;;;;;;;5074614;28;20515;-75
2022/10/08 12:04:10;;;;;;;9.40;5.38;;;;;;;;;;5075633;28;20032;-75
2022/10/08 12:06:37;;;;;;;12.00;5.47;;;;;;;;;;5072850;28;20044;-75
2022/10/08 12:09:05;;;;;;;11.85;6.18;;;;;;;;;;5075132;28;20067;-75
2022/10/08 12:11:31;;;;;;;8.52;5.47;;;;;;;;;;5075470;28;20514;-75
2022/10/08 12:16:47;;;;;;;11.68;6.43;;;;;;;;;;5073097;28;20032;-75
2022/10/08 12:19:37;;;;;;;12.23;6.35;;;;;;;;;;5075301;28;20045;-75
2022/10/08 12:22:23;;;;;;;11.70;7.80;;;;;;;;;;5053162;28;20102;-75
2022/10/08 12:25:02;;;;;;;10.38;7.20;;;;;;;;;;5074191;28;20583;-75
2022/10/08 12:27:33;;;;;;;9.73;6.75;;;;;;;;;;5074124;28;20045;-75
2022/10/08 12:30:04;;;;;;;8.55;7.03;;;;;;;;;;5070515;28;20032;-76
2022/10/08 12:32:52;;;;;;;9.35;6.43;;;;;;;;;;5072818;28;20068;-76
2022/10/08 12:35:24;;;;;;;10.05;6.80;;;;;;;;;;5072581;28;20032;-76
2022/10/08 12:38:08;;;;;;;7.63;5.68;;;;;;;;;;5074967;28;20044;-76
2022/10/08 12:40:56;;;;;;;11.02;5.93;;;;;;;;;;5074548;28;20067;-76
2022/10/08 12:43:30;;;;;;;7.85;6.57;;;;;;;;;;5075938;28;20055;-76
2022/10/08 12:46:16;;;;;;;10.13;6.90;;;;;;;;;;5075432;28;20044;-77
2022/10/08 12:48:53;;;;;;;10.80;6.05;;;;;;;;;;5072260;28;20121;-76
2022/10/08 12:51:25;;;;;;;8.40;5.97;;;;;;;;;;5074303;28;20162;-76
2022/10/08 12:53:51;;;;;;;7.18;6.25;;;;;;;;;;5075196;28;20047;-76
2022/10/08 12:56:25;;;;;;;7.97;5.82;;;;;;;;;;5074944;28;20064;-76
2022/10/08 12:58:51;;;;;;;8.32;6.30;;;;;;;;;;5074916;28;20036;-76
2022/10/08 13:01:19;;;;;;;11.95;6.40;;;;;;;;;;5075057;28;20048;-76
2022/10/08 13:03:45;;;;;;;8.00;5.72;;;;;;;;;;5075302;28;20051;-76
2022/10/08 13:06:25;;;;;;;9.95;6.43;;;;;;;;;;5075154;28;20082;-76
2022/10/08 13:08:51;;;;;;;9.73;6.72;;;;;;;;;;5074107;28;20048;-76
2022/10/08 13:11:18;;;;;;;12.30;7.68;;;;;;;;;;5074906;28;20055;-76
2022/10/08 13:13:49;;;;;;;8.75;7.25;;;;;;;;;;5073783;28;20455;-76
2022/10/08 13:16:14;;;;;;;;;;;;;;;;;;5074437;28;20131;-76
2022/10/08 13:18:42;;;;;;;10.48;6.88;;;;;;;;;;5074175;28;19940;-76
2022/10/08 13:21:25;;;;;;;11.20;7.03;;;;;;;;;;5071439;28;20063;-75
2022/10/08 13:23:52;;;;;;;14.80;6.78;;;;;;;;;;5072094;28;20033;-76
2022/10/08 13:26:36;;;;;;;12.88;7.30;;;;;;;;;;5073875;28;20040;-77
2022/10/08 13:29:18;;;;;;;11.80;6.28;;;;;;;;;;5072658;28;20545;-76
2022/10/08 13:31:50;;;;;;;13.05;7.10;;;;;;;;;;5072643;28;20087;-75
2022/10/08 13:34:17;;;;;;;9.35;6.50;;;;;;;;;;5073648;28;20135;-75
2022/10/08 13:36:54;;;;;;;11.07;6.13;;;;;;;;;;5073425;28;20032;-75
2022/10/08 13:39:24;;;;;;;11.07;6.28;;;;;;;;;;5072608;28;20082;-75
2022/10/08 13:41:51;;;;;;;8.15;5.97;;;;;;;;;;5071251;28;20427;-76
2022/10/08 13:44:18;;;;;;;8.13;5.65;;;;;;;;;;5073150;28;20052;-76
2022/10/08 13:46:44;;;;;;;13.35;6.43;;;;;;;;;;5074418;28;20035;-76
2022/10/08 13:49:20;;;;;;;9.57;5.63;;;;;;;;;;5073903;28;20046;-74
2022/10/08 13:51:46;;;;;;;9.75;5.82;;;;;;;;;;5073797;28;20076;-73
2022/10/08 13:54:14;;;;;;;11.10;5.82;;;;;;;;;;5073509;28;20403;-72
2022/10/08 13:56:40;;;;;;;8.52;5.18;;;;;;;;;;5074158;28;20056;-72
2022/10/08 13:59:08;;;;;;;7.75;4.63;;;;;;;;;;5071102;28;20071;-72
2022/10/08 14:01:34;;;;;;;11.48;4.70;;;;;;;;;;5074929;28;20044;-73
2022/10/08 14:04:01;;;;;;;6.40;4.55;;;;;;;;;;5071474;28;20060;-72
2022/10/08 14:06:27;;;;;;;6.82;4.05;;;;;;;;;;5074830;28;20047;-73
2022/10/08 14:08:54;;;;;;;9.50;4.50;;;;;;;;;;5073102;28;20052;-72
2022/10/08 14:11:20;;;;;;;8.55;4.18;;;;;;;;;;5074326;28;20124;-74
2022/10/08 14:13:46;;;;;;;7.05;4.25;;;;;;;;;;5074320;28;20056;-73
2022/10/08 14:16:12;;;;;;;7.43;4.53;;;;;;;;;;5074110;28;20067;-73
2022/10/08 14:18:39;;;;;;;7.88;4.40;;;;;;;;;;5074052;28;20503;-73
2022/10/08 14:21:05;;;;;;;13.30;4.40;;;;;;;;;;5072285;28;20040;-74
2022/10/08 14:23:31;;;;;;;7.32;4.40;;;;;;;;;;5072234;28;20047;-74
2022/10/08 14:25:57;;;;;;;7.07;4.43;;;;;;;;;;5073905;28;20028;-73
2022/10/08 14:28:24;;;;;;;7.65;4.70;;;;;;;;;;5073578;28;20040;-73
2022/10/08 14:30:50;;;;;;;10.70;4.70;;;;;;;;;;5074175;28;20040;-73
2022/10/08 14:33:16;;;;;;;6.32;4.35;;;;;;;;;;5074280;28;20037;-74
2022/10/08 14:35:42;;;;;;;6.68;4.50;;;;;;;;;;5074528;28;20043;-74
2022/10/08 14:38:08;;;;;;;10.82;4.57;;;;;;;;;;5074491;28;20503;-74
2022/10/08 14:40:35;;;;;;;8.35;4.45;;;;;;;;;;5073976;28;20120;-74
2022/10/08 14:43:01;;;;;;;6.53;4.15;;;;;;;;;;5074418;28;20128;-74
2022/10/08 14:45:27;;;;;;;8.30;5.03;;;;;;;;;;5074344;28;20041;-73
2022/10/08 14:47:53;;;;;;;7.65;4.72;;;;;;;;;;5073489;28;20040;-72
2022/10/08 14:50:19;;;;;;;9.95;5.05;;;;;;;;;;5073658;28;20447;-73
2022/10/08 14:52:45;;;;;;;7.35;4.82;;;;;;;;;;5072063;28;20049;-73
2022/10/08 14:55:13;;;;;;;7.82;5.07;;;;;;;;;;5062353;28;20056;-74
2022/10/08 14:57:39;;;;;;;7.78;4.70;;;;;;;;;;5068448;28;20099;-76